Time;durP1;ratioP1;P1;durP2;ratioP2;P2;SDS_P1;SDS_P2;PMS_P1;PMS_P2;Temp;Humidity;BMP_temperature;BMP_pressure;BME280_temperature;BME280_humidity;BME280_pressure;Samples;Min_cycle;Max_cycle;Signal;HPM_P1;HPM_P2
2022/05/28 00:02:23;;;;;;;6.10;0.93;;;16.20;35.00;;;;;;5054369;28;20177;-38
2022/05/28 00:04:48;;;;;;;2.23;1.27;;;16.10;35.30;;;;;;5054269;28;20230;-38
2022/05/28 00:07:14;;;;;;;2.10;1.33;;;16.00;35.00;;;;;;5054104;28;20571;-38
2022/05/28 00:09:40;;;;;;;5.73;1.47;;;16.00;35.20;;;;;;5054176;28;20193;-38
2022/05/28 00:12:06;;;;;;;7.43;1.50;;;15.90;35.20;;;;;;5054238;28;20173;-37
2022/05/28 00:14:32;;;;;;;7.63;1.80;;;15.90;35.30;;;;;;5054258;28;20170;-38
2022/05/28 00:16:58;;;;;;;5.93;1.77;;;15.90;35.30;;;;;;5053972;28;20270;-38
2022/05/28 00:19:23;;;;;;;3.83;1.20;;;15.80;35.70;;;;;;5054122;28;20246;-38
2022/05/28 00:21:49;;;;;;;4.70;1.33;;;15.80;34.90;;;;;;5054076;28;20178;-38
2022/05/28 00:24:15;;;;;;;3.60;1.40;;;15.80;34.90;;;;;;5053853;28;20177;-37
2022/05/28 00:26:42;;;;;;;4.07;1.10;;;15.80;35.00;;;;;;5054042;28;20580;-38
2022/05/28 00:29:08;;;;;;;5.95;1.10;;;15.70;35.10;;;;;;5053715;28;20681;-38
2022/05/28 00:31:33;;;;;;;3.40;1.40;;;15.70;35.10;;;;;;5053863;28;20180;-38
2022/05/28 00:33:59;;;;;;;3.70;1.33;;;15.80;35.20;;;;;;5053671;28;20957;-38
2022/05/28 00:36:25;;;;;;;3.43;1.37;;;15.70;35.10;;;;;;5053854;28;20185;-37
2022/05/28 00:38:51;;;;;;;2.10;1.03;;;15.70;35.00;;;;;;5053683;28;20261;-38
2022/05/28 00:41:16;;;;;;;2.50;1.50;;;15.70;35.00;;;;;;5053908;28;20184;-38
2022/05/28 00:43:44;;;;;;;8.50;1.97;;;15.70;34.80;;;;;;5052515;28;20767;-37
2022/05/28 00:46:21;;;;;;;2.78;1.10;;;15.70;34.90;;;;;;5053492;28;20196;-37
2022/05/28 00:49:01;;;;;;;6.03;1.42;;;15.60;35.00;;;;;;5053457;28;20251;-38
2022/05/28 00:51:31;;;;;;;3.25;1.00;;;15.60;35.10;;;;;;5053666;28;20243;-38
2022/05/28 00:54:00;;;;;;;5.43;1.20;;;15.60;35.10;;;;;;5053327;28;20158;-37
2022/05/28 00:56:27;;;;;;;2.92;1.30;;;15.60;34.90;;;;;;5053401;28;20254;-38
2022/05/28 00:58:54;;;;;;;6.15;1.85;;;15.60;35.10;;;;;;5053691;28;20184;-38
2022/05/28 01:01:23;;;;;;;3.92;0.95;;;15.60;35.30;;;;;;5053389;28;20166;-38
2022/05/28 01:04:23;;;;;;;3.60;1.25;;;15.50;35.30;;;;;;5053649;28;20200;-38
2022/05/28 01:07:11;;;;;;;1.83;1.00;;;15.50;35.10;;;;;;5053671;28;20189;-40
2022/05/28 01:09:48;;;;;;;2.60;0.95;;;15.40;35.20;;;;;;5052406;28;20242;-39
2022/05/28 01:12:33;;;;;;;2.40;0.70;;;15.40;35.10;;;;;;5053048;28;20632;-39
2022/05/28 01:15:12;;;;;;;4.57;1.95;;;15.40;35.00;;;;;;5052871;28;20158;-40
2022/05/28 01:17:51;;;;;;;3.25;0.93;;;15.30;35.30;;;;;;5052772;28;20219;-39
2022/05/28 01:20:21;;;;;;;8.88;1.35;;;15.30;35.30;;;;;;5052813;28;20165;-39
2022/05/28 01:22:58;;;;;;;3.15;1.55;;;15.30;35.30;;;;;;5052903;28;20177;-40
2022/05/28 01:25:34;;;;;;;2.53;0.98;;;15.30;35.20;;;;;;5052633;28;20219;-39
2022/05/28 01:28:10;;;;;;;2.30;0.90;;;15.30;35.40;;;;;;5052756;28;20564;-39
2022/05/28 01:30:40;;;;;;;4.20;1.15;;;15.30;35.20;;;;;;5052653;28;20192;-39
2022/05/28 01:33:08;;;;;;;1.95;0.75;;;15.30;35.30;;;;;;5052973;28;20177;-40
2022/05/28 01:35:35;;;;;;;4.10;1.00;;;15.30;35.40;;;;;;5052460;28;20552;-39
2022/05/28 01:38:03;;;;;;;2.65;1.15;;;15.30;35.30;;;;;;5052535;28;20165;-40
2022/05/28 01:40:29;;;;;;;3.17;1.05;;;15.30;35.40;;;;;;5052540;28;20173;-39
2022/05/28 01:42:57;;;;;;;2.00;0.90;;;15.30;35.50;;;;;;5052570;28;20170;-40
2022/05/28 01:45:31;;;;;;;4.63;1.00;;;15.30;35.20;;;;;;5052263;28;20177;-40
2022/05/28 01:48:00;;;;;;;2.30;1.10;;;15.30;35.20;;;;;;5052391;28;20158;-38
2022/05/28 01:50:28;;;;;;;2.97;1.30;;;15.30;35.40;;;;;;5052365;28;20197;-40
2022/05/28 01:52:56;;;;;;;2.03;0.80;;;15.20;35.40;;;;;;5052353;28;20192;-38
2022/05/28 01:55:25;;;;;;;2.63;1.10;;;15.20;35.40;;;;;;5051646;28;20633;-39
2022/05/28 01:57:51;;;;;;;4.00;0.93;;;15.20;35.50;;;;;;5052401;28;20177;-39
2022/05/28 02:00:18;;;;;;;5.47;1.50;;;15.10;35.80;;;;;;5052237;28;20178;-41
2022/05/28 02:02:43;;;;;;;1.55;0.80;;;15.20;35.90;;;;;;5052276;28;20177;-40
2022/05/28 02:05:10;;;;;;;3.07;1.00;;;15.20;35.90;;;;;;5052009;28;20655;-39
2022/05/28 02:07:36;;;;;;;2.65;1.17;;;15.10;35.90;;;;;;5052126;28;20176;-40
2022/05/28 02:10:07;;;;;;;1.98;0.98;;;15.10;35.80;;;;;;5051845;28;20199;-39
2022/05/28 02:12:39;;;;;;;1.60;1.23;;;15.10;35.90;;;;;;5052049;28;20169;-39
2022/05/28 02:15:42;;;;;;;2.15;1.08;;;15.20;36.20;;;;;;5052034;28;20244;-38
2022/05/28 02:18:32;;;;;;;2.20;1.15;;;15.20;36.00;;;;;;5051979;28;20207;-39
2022/05/28 02:21:00;;;;;;;2.20;1.00;;;15.10;35.90;;;;;;5052030;28;20177;-39
2022/05/28 02:23:40;;;;;;;2.17;1.48;;;15.10;35.80;;;;;;5051949;28;20521;-40
2022/05/28 02:26:33;;;;;;;5.88;1.42;;;15.10;35.90;;;;;;5051980;28;20194;-39
2022/05/28 02:29:00;;;;;;;2.72;1.63;;;15.20;35.80;;;;;;5051846;28;20224;-38
2022/05/28 02:31:30;;;;;;;10.55;2.00;;;15.20;36.00;;;;;;5051898;28;20181;-39
2022/05/28 02:33:56;;;;;;;2.50;1.48;;;15.20;36.00;;;;;;5051899;28;20169;-39
2022/05/28 02:36:22;;;;;;;1.60;0.73;;;15.10;35.90;;;;;;5051817;28;20197;-39
2022/05/28 02:38:48;;;;;;;1.43;0.70;;;15.20;36.00;;;;;;5051731;28;20768;-40
2022/05/28 02:41:14;;;;;;;2.90;0.87;;;15.20;36.00;;;;;;5051698;28;20414;-39
2022/05/28 02:43:40;;;;;;;12.83;1.73;;;15.10;36.00;;;;;;5051973;28;20415;-39
2022/05/28 02:46:07;;;;;;;2.97;1.10;;;15.20;36.20;;;;;;5051540;28;20469;-39
2022/05/28 02:48:33;;;;;;;2.85;0.82;;;15.20;36.30;;;;;;5051609;28;20400;-39
2022/05/28 02:51:06;;;;;;;4.23;1.47;;;15.20;36.20;;;;;;5052009;28;20177;-40
2022/05/28 02:53:33;;;;;;;2.63;0.80;;;15.20;36.20;;;;;;5051740;28;20172;-38
2022/05/28 02:55:59;;;;;;;4.53;1.42;;;15.20;36.30;;;;;;5051408;28;20213;-39
2022/05/28 02:58:25;;;;;;;1.85;1.45;;;15.20;36.30;;;;;;5051529;28;20157;-39
2022/05/28 03:00:51;;;;;;;3.63;0.95;;;15.10;36.00;;;;;;5051775;28;20185;-40
2022/05/28 03:03:19;;;;;;;2.80;1.10;;;15.10;36.20;;;;;;5051574;28;20537;-39
2022/05/28 03:05:50;;;;;;;7.32;1.75;;;15.10;36.30;;;;;;5051346;28;20712;-39
2022/05/28 03:08:17;;;;;;;5.07;1.30;;;15.80;36.50;;;;;;5054640;28;20247;-39
2022/05/28 03:10:44;;;;;;;2.20;1.55;;;15.10;36.30;;;;;;5056313;28;20211;-38
2022/05/28 03:13:10;;;;;;;6.15;1.20;;;15.00;36.20;;;;;;5055307;28;20629;-40
2022/05/28 03:15:36;;;;;;;2.85;1.23;;;15.00;36.20;;;;;;5054929;28;20553;-39
2022/05/28 03:18:02;;;;;;;3.73;1.83;;;15.00;36.30;;;;;;5055173;28;20170;-39
2022/05/28 03:20:29;;;;;;;3.85;1.17;;;15.00;36.40;;;;;;5055240;28;20811;-40
2022/05/28 03:22:55;;;;;;;2.78;0.90;;;14.90;36.50;;;;;;5055068;28;20181;-39
2022/05/28 03:25:22;;;;;;;2.05;0.65;;;14.90;37.30;;;;;;5054865;28;20252;-39
2022/05/28 03:27:47;;;;;;;11.07;1.45;;;14.80;36.70;;;;;;5054965;28;20169;-39
2022/05/28 03:30:14;;;;;;;2.93;1.40;;;14.80;36.80;;;;;;5054950;28;20203;-38
2022/05/28 03:32:40;;;;;;;4.25;1.23;;;14.80;36.70;;;;;;5054993;28;20169;-40
2022/05/28 03:35:06;;;;;;;2.43;1.00;;;14.80;36.70;;;;;;5054771;28;20223;-40
2022/05/28 03:37:32;;;;;;;8.23;1.85;;;14.90;36.80;;;;;;5054627;28;20224;-38
2022/05/28 03:39:58;;;;;;;4.13;1.20;;;15.00;37.10;;;;;;5054813;28;20209;-40
2022/05/28 03:42:23;;;;;;;2.70;1.13;;;15.00;37.10;;;;;;5054789;28;20174;-39
2022/05/28 03:44:49;;;;;;;3.20;1.63;;;15.00;37.00;;;;;;5054566;28;20184;-40
2022/05/28 03:47:15;;;;;;;2.70;1.10;;;15.00;36.80;;;;;;5054555;28;20189;-39
2022/05/28 03:49:43;;;;;;;3.88;1.20;;;15.10;37.20;;;;;;5054558;28;20193;-39
2022/05/28 03:52:10;;;;;;;1.75;1.08;;;15.10;36.90;;;;;;5055319;28;20256;-38
2022/05/28 03:54:36;;;;;;;2.38;1.73;;;15.10;36.90;;;;;;5054415;28;20166;-39
2022/05/28 03:57:14;;;;;;;2.60;0.63;;;15.10;37.00;;;;;;5054627;28;20270;-39
2022/05/28 03:59:40;;;;;;;2.38;1.17;;;15.20;37.20;;;;;;5054607;28;20180;-38
2022/05/28 04:02:05;;;;;;;1.50;0.63;;;15.20;37.00;;;;;;5054443;28;20177;-39
2022/05/28 04:04:31;;;;;;;3.83;1.30;;;15.20;36.80;;;;;;5054145;28;20439;-39
2022/05/28 04:06:59;;;;;;;1.70;1.00;;;15.20;36.80;;;;;;5054092;28;20289;-39
2022/05/28 04:09:25;;;;;;;1.85;0.70;;;15.30;37.10;;;;;;5054193;28;20549;-39
2022/05/28 04:11:51;;;;;;;3.27;1.13;;;15.30;37.00;;;;;;5054333;28;20169;-39
2022/05/28 04:14:16;;;;;;;1.67;0.80;;;15.30;37.30;;;;;;5054031;28;20173;-39
2022/05/28 04:16:42;;;;;;;3.37;1.00;;;15.30;37.00;;;;;;5053960;28;20247;-39
2022/05/28 04:19:09;;;;;;;2.67;1.20;;;15.20;36.50;;;;;;5053705;28;20201;-39
2022/05/28 04:21:36;;;;;;;1.65;0.70;;;15.20;36.60;;;;;;5054228;28;20193;-40
2022/05/28 04:24:02;;;;;;;3.55;1.75;;;15.20;36.70;;;;;;5054091;28;20214;-39
2022/05/28 04:26:28;;;;;;;4.72;1.63;;;15.20;36.70;;;;;;5053854;28;20235;-40
2022/05/28 04:28:54;;;;;;;3.40;1.23;;;15.20;36.50;;;;;;5054022;28;20596;-39
2022/05/28 04:31:20;;;;;;;3.00;1.30;;;15.20;36.80;;;;;;5053853;28;20404;-39
2022/05/28 04:33:45;;;;;;;2.25;0.85;;;15.30;36.80;;;;;;5053713;28;20188;-39
2022/05/28 04:36:11;;;;;;;4.67;1.50;;;15.30;36.60;;;;;;5053503;28;20549;-39
2022/05/28 04:38:37;;;;;;;2.27;1.10;;;15.30;36.80;;;;;;5053765;28;20176;-38
2022/05/28 04:41:02;;;;;;;3.70;1.60;;;15.40;36.50;;;;;;5053829;28;20197;-39
2022/05/28 04:43:28;;;;;;;2.80;1.03;;;15.40;36.50;;;;;;5053631;28;20169;-39
2022/05/28 04:45:54;;;;;;;3.80;1.40;;;15.40;36.70;;;;;;5053533;28;20196;-39
2022/05/28 04:48:19;;;;;;;3.40;1.33;;;15.50;37.10;;;;;;5053442;28;20240;-39
2022/05/28 04:50:45;;;;;;;6.70;1.60;;;15.40;38.60;;;;;;5053373;28;20197;-39
2022/05/28 04:53:11;;;;;;;2.63;1.10;;;15.30;39.20;;;;;;5053449;28;20168;-39
2022/05/28 04:55:39;;;;;;;2.05;1.00;;;15.20;39.70;;;;;;5053302;28;20193;-39
2022/05/28 04:58:05;;;;;;;2.45;1.10;;;15.10;39.60;;;;;;5053541;28;20174;-39
2022/05/28 05:00:31;;;;;;;3.75;1.17;;;15.00;40.80;;;;;;5053339;28;20223;-39
2022/05/28 05:02:57;;;;;;;2.40;1.13;;;15.00;41.00;;;;;;5053252;28;20177;-39
2022/05/28 05:05:22;;;;;;;2.13;0.80;;;15.00;41.00;;;;;;5053039;28;20252;-40
2022/05/28 05:07:48;;;;;;;3.90;1.60;;;15.00;41.30;;;;;;5053693;28;20583;-39
2022/05/28 05:10:14;;;;;;;2.90;1.43;;;15.00;41.20;;;;;;5053062;28;20223;-39
2022/05/28 05:12:40;;;;;;;1.60;1.20;;;15.00;42.10;;;;;;5053125;28;20647;-39
2022/05/28 05:15:06;;;;;;;4.40;1.20;;;15.00;41.70;;;;;;5052963;28;20170;-39
2022/05/28 05:17:32;;;;;;;2.60;1.40;;;15.00;42.90;;;;;;5052648;28;20246;-39
2022/05/28 05:19:57;;;;;;;3.53;1.27;;;14.90;42.80;;;;;;5053002;28;20196;-40
2022/05/28 05:22:23;;;;;;;2.67;1.67;;;14.80;43.00;;;;;;5052892;28;20173;-39
2022/05/28 05:24:51;;;;;;;2.33;1.17;;;14.80;42.80;;;;;;5052995;28;20177;-39
2022/05/28 05:27:17;;;;;;;1.88;1.17;;;14.80;43.10;;;;;;5052670;28;20247;-40
2022/05/28 05:29:43;;;;;;;2.70;1.00;;;14.80;42.60;;;;;;5052088;28;20735;-39
2022/05/28 05:32:08;;;;;;;1.80;0.77;;;14.80;42.80;;;;;;5052665;28;20170;-39
2022/05/28 05:34:34;;;;;;;5.53;1.57;;;14.80;42.70;;;;;;5052534;28;20169;-40
2022/05/28 05:37:00;;;;;;;2.13;1.30;;;14.80;42.70;;;;;;5052454;28;20244;-39
2022/05/28 05:39:26;;;;;;;3.23;1.50;;;14.70;43.20;;;;;;5052902;28;20173;-39
2022/05/28 05:41:52;;;;;;;2.27;0.77;;;14.70;43.40;;;;;;5052691;28;20415;-39
2022/05/28 05:44:18;;;;;;;1.70;0.77;;;14.70;43.00;;;;;;5052353;28;20787;-39
2022/05/28 05:46:44;;;;;;;1.80;0.90;;;14.70;42.80;;;;;;5052301;28;20201;-39
2022/05/28 05:49:11;;;;;;;2.90;1.63;;;14.60;42.60;;;;;;5052651;28;20197;-39
2022/05/28 05:51:41;;;;;;;3.25;1.27;;;14.50;42.20;;;;;;5052330;28;20399;-39
2022/05/28 05:54:07;;;;;;;2.92;1.00;;;14.60;42.70;;;;;;5052158;28;20170;-39
2022/05/28 05:56:33;;;;;;;1.90;0.88;;;14.50;43.00;;;;;;5052194;28;20189;-39
2022/05/28 05:58:59;;;;;;;1.60;1.10;;;14.50;42.40;;;;;;5052184;28;20558;-40
2022/05/28 06:01:25;;;;;;;2.63;0.80;;;14.50;42.40;;;;;;5052152;28;20252;-40
2022/05/28 06:03:51;;;;;;;2.80;0.75;;;14.50;42.70;;;;;;5052205;28;20169;-39
2022/05/28 06:06:18;;;;;;;2.07;1.10;;;14.40;43.10;;;;;;5051975;28;20541;-39
2022/05/28 06:08:45;;;;;;;3.67;0.70;;;14.40;42.20;;;;;;5051938;28;20176;-40
2022/05/28 06:11:11;;;;;;;4.43;1.00;;;14.30;42.80;;;;;;5052078;28;20162;-40
2022/05/28 06:13:37;;;;;;;1.70;1.03;;;14.30;43.10;;;;;;5052031;28;20176;-40
2022/05/28 06:16:03;;;;;;;2.20;0.73;;;14.30;42.80;;;;;;5051732;28;21019;-39
2022/05/28 06:18:30;;;;;;;3.25;1.15;;;14.40;43.40;;;;;;5052011;28;20170;-38
2022/05/28 06:20:57;;;;;;;1.75;0.70;;;14.60;43.50;;;;;;5051952;28;20185;-39
2022/05/28 06:23:23;;;;;;;1.52;0.60;;;14.70;43.80;;;;;;5051951;28;20177;-39
2022/05/28 06:25:49;;;;;;;1.60;0.63;;;14.90;43.30;;;;;;5051748;28;20726;-39
2022/05/28 06:28:15;;;;;;;1.50;0.60;;;15.00;43.40;;;;;;5051736;28;20756;-39
2022/05/28 06:30:43;;;;;;;2.97;1.47;;;15.10;42.90;;;;;;5033947;28;20538;-40
2022/05/28 06:33:09;;;;;;;1.27;0.50;;;15.20;42.70;;;;;;5051955;28;20404;-39
2022/05/28 06:35:35;;;;;;;1.20;0.60;;;15.30;43.00;;;;;;5051734;28;20195;-39
2022/05/28 06:38:00;;;;;;;1.40;1.00;;;15.60;42.90;;;;;;5051787;28;20481;-39
2022/05/28 06:40:27;;;;;;;2.10;0.90;;;15.70;42.70;;;;;;5052505;28;20196;-40
2022/05/28 06:42:55;;;;;;;1.75;1.00;;;15.90;41.90;;;;;;5055986;28;20415;-38
2022/05/28 06:45:23;;;;;;;3.10;0.93;;;16.00;41.10;;;;;;5055857;28;20615;-38
2022/05/28 06:47:49;;;;;;;2.13;0.88;;;16.10;40.60;;;;;;5055733;28;20536;-38
2022/05/28 06:53:02;;;;;;;2.25;0.70;;;16.20;39.00;;;;;;5055851;28;20207;-37
2022/05/28 06:55:27;;;;;;;2.55;0.68;;;16.20;39.80;;;;;;5055400;28;20645;-37
2022/05/28 06:57:54;;;;;;;2.97;1.07;;;16.20;39.50;;;;;;5055576;28;20181;-38
2022/05/28 07:00:20;;;;;;;1.50;0.80;;;16.40;39.90;;;;;;5055613;28;20219;-38
2022/05/28 07:02:46;;;;;;;1.40;0.70;;;16.40;39.50;;;;;;5055801;28;20234;-38
2022/05/28 07:05:14;;;;;;;2.45;0.90;;;16.40;39.90;;;;;;5055323;28;20248;-38
2022/05/28 07:07:41;;;;;;;2.72;1.00;;;16.50;39.50;;;;;;5055512;28;20174;-38
2022/05/28 07:10:07;;;;;;;1.80;1.00;;;16.50;38.80;;;;;;5055206;28;20197;-38
2022/05/28 07:12:33;;;;;;;2.30;0.68;;;16.50;38.10;;;;;;5055562;28;20264;-37
2022/05/28 07:14:59;;;;;;;1.80;0.70;;;16.50;38.60;;;;;;5055230;28;20671;-38
2022/05/28 07:17:25;;;;;;;2.03;0.93;;;16.60;38.70;;;;;;5054951;28;20449;-38
2022/05/28 07:19:51;;;;;;;2.80;1.10;;;16.60;37.50;;;;;;5055472;28;20272;-38
2022/05/28 07:22:17;;;;;;;2.67;0.93;;;16.70;37.70;;;;;;5055391;28;20177;-37
2022/05/28 07:24:43;;;;;;;2.40;1.23;;;16.70;37.00;;;;;;5055088;28;20644;-37
2022/05/28 07:27:11;;;;;;;2.43;0.80;;;16.60;35.70;;;;;;5055272;28;20232;-38
2022/05/28 07:29:37;;;;;;;2.10;0.65;;;16.60;37.20;;;;;;5055388;28;20451;-37
2022/05/28 07:32:03;;;;;;;3.05;1.00;;;16.60;37.80;;;;;;5054931;28;20173;-38
2022/05/28 07:34:29;;;;;;;2.38;0.93;;;16.60;37.20;;;;;;5054987;28;20175;-38
2022/05/28 07:36:54;;;;;;;2.30;1.07;;;16.70;38.30;;;;;;5055347;28;20194;-38
2022/05/28 07:39:20;;;;;;;1.90;0.73;;;16.80;37.20;;;;;;5055304;28;20177;-38
2022/05/28 07:41:46;;;;;;;2.00;1.03;;;17.00;38.10;;;;;;5054813;28;20778;-38
2022/05/28 07:44:12;;;;;;;1.90;1.10;;;17.20;36.80;;;;;;5054654;28;20714;-37
2022/05/28 07:46:38;;;;;;;3.20;1.30;;;17.30;36.60;;;;;;5054606;28;20466;-38
2022/05/28 07:49:04;;;;;;;5.60;1.10;;;17.30;36.30;;;;;;5054668;28;20287;-38
2022/05/28 07:51:30;;;;;;;3.50;1.30;;;17.30;35.80;;;;;;5054840;28;20404;-38
2022/05/28 07:53:56;;;;;;;2.60;0.97;;;17.20;35.90;;;;;;5054281;28;20568;-38
2022/05/28 07:56:22;;;;;;;1.52;0.75;;;17.20;36.70;;;;;;5054702;28;20503;-38
2022/05/28 07:58:54;;;;;;;2.75;0.93;;;17.20;36.70;;;;;;5054636;28;20252;-38
2022/05/28 08:01:25;;;;;;;7.00;1.65;;;17.10;35.20;;;;;;5054660;28;20177;-37
2022/05/28 08:03:52;;;;;;;1.85;0.90;;;16.90;35.60;;;;;;5054433;28;20166;-37
2022/05/28 08:06:19;;;;;;;1.60;1.00;;;16.90;36.60;;;;;;5054084;28;20190;-38
2022/05/28 08:08:45;;;;;;;2.85;1.13;;;16.90;37.20;;;;;;5054153;28;20175;-37
2022/05/28 08:11:10;;;;;;;1.87;0.97;;;16.90;36.40;;;;;;5054335;28;20248;-37
2022/05/28 08:13:37;;;;;;;3.43;1.60;;;16.90;36.50;;;;;;5054380;28;20979;-38
2022/05/28 08:16:03;;;;;;;2.47;1.40;;;16.90;36.70;;;;;;5053945;28;20292;-37
2022/05/28 08:18:29;;;;;;;2.30;1.38;;;17.00;36.70;;;;;;5054203;28;20181;-37
2022/05/28 08:23:42;;;;;;;4.22;1.95;;;17.00;36.50;;;;;;5054554;28;20192;-37
2022/05/28 08:26:09;;;;;;;1.90;1.38;;;17.10;36.00;;;;;;5053963;28;20726;-38
2022/05/28 08:28:37;;;;;;;3.13;1.33;;;17.20;35.60;;;;;;5053994;28;20185;-38
2022/05/28 08:31:03;;;;;;;12.05;1.80;;;17.20;34.80;;;;;;5053737;28;20573;-38
2022/05/28 08:33:29;;;;;;;3.67;1.52;;;17.30;35.00;;;;;;5053925;28;20170;-38
2022/05/28 08:35:56;;;;;;;3.80;1.20;;;17.30;34.70;;;;;;5053677;28;20197;-38
2022/05/28 08:38:23;;;;;;;3.75;1.75;;;17.30;35.60;;;;;;5053551;28;20168;-38
2022/05/28 08:41:09;;;;;;;2.05;1.15;;;17.30;35.30;;;;;;5053567;28;20331;-37
2022/05/28 08:43:39;;;;;;;5.70;3.28;;;17.50;35.30;;;;;;5053917;28;20231;-38
2022/05/28 08:46:10;;;;;;;3.30;1.10;;;17.60;36.20;;;;;;5053664;28;20197;-38
2022/05/28 08:48:56;;;;;;;1.77;0.90;;;17.70;35.60;;;;;;5053516;28;20256;-38
2022/05/28 08:51:40;;;;;;;3.92;1.15;;;17.90;35.20;;;;;;5053416;28;20568;-37
2022/05/28 08:54:56;;;;;;;2.38;1.30;;;17.90;33.30;;;;;;5053259;28;20520;-38
2022/05/28 08:57:36;;;;;;;2.78;1.80;;;17.90;32.70;;;;;;5053738;28;20193;-38
2022/05/28 09:00:08;;;;;;;2.00;0.90;;;17.70;32.30;;;;;;5053991;28;20629;-38
2022/05/28 09:02:50;;;;;;;3.25;1.45;;;17.60;33.10;;;;;;5053303;28;20250;-38
2022/05/28 09:05:23;;;;;;;2.70;1.13;;;17.60;33.40;;;;;;5052081;28;20169;-38
2022/05/28 09:07:52;;;;;;;4.68;1.60;;;17.50;32.60;;;;;;5053382;28;20173;-38
2022/05/28 09:10:18;;;;;;;1.60;0.85;;;17.50;33.30;;;;;;5053074;28;20215;-39
2022/05/28 09:13:30;;;;;;;1.90;0.60;;;17.50;33.30;;;;;;5053120;28;20169;-38
2022/05/28 09:15:59;;;;;;;3.10;1.15;;;17.50;33.50;;;;;;5052986;28;20814;-38
2022/05/28 09:18:33;;;;;;;2.55;0.77;;;17.50;33.10;;;;;;5052954;28;20172;-38
2022/05/28 09:20:59;;;;;;;2.40;1.80;;;17.60;33.10;;;;;;5052952;28;20178;-38
2022/05/28 09:23:25;;;;;;;2.13;0.90;;;17.60;32.60;;;;;;5052872;28;20248;-38
2022/05/28 09:26:00;;;;;;;2.63;1.02;;;17.50;31.80;;;;;;5137183;27;20523;-39
2022/05/28 09:28:42;;;;;;;2.40;1.48;;;17.40;32.70;;;;;;5151056;27;20170;-38
2022/05/28 09:31:35;;;;;;;1.88;0.98;;;17.40;32.20;;;;;;5151507;27;20143;-37
2022/05/28 09:34:29;;;;;;;2.15;1.23;;;17.30;32.00;;;;;;5150928;27;20150;-37
2022/05/28 09:36:59;;;;;;;5.10;1.00;;;17.30;32.60;;;;;;5150860;27;20661;-39
2022/05/28 09:39:41;;;;;;;6.40;1.40;;;17.40;33.30;;;;;;5151025;27;20181;-39
2022/05/28 09:42:28;;;;;;;2.40;1.15;;;17.60;33.10;;;;;;5150818;27;20229;-39
2022/05/28 09:44:54;;;;;;;2.30;1.55;;;17.90;34.00;;;;;;5150556;27;20216;-39
2022/05/28 09:47:19;;;;;;;2.43;1.20;;;18.20;33.20;;;;;;5150705;27;20193;-39
2022/05/28 09:49:51;;;;;;;1.60;0.90;;;18.60;32.40;;;;;;5150740;27;20648;-39
2022/05/28 09:52:25;;;;;;;4.82;1.50;;;18.90;32.20;;;;;;5151063;27;20233;-39
2022/05/28 09:54:51;;;;;;;2.42;0.95;;;19.20;33.10;;;;;;5151084;27;20629;-40
2022/05/28 09:57:26;;;;;;;2.50;1.30;;;19.40;32.10;;;;;;5150411;27;20201;-40
2022/05/28 09:59:55;;;;;;;3.00;1.65;;;19.60;30.70;;;;;;5150522;27;20688;-38
2022/05/28 10:02:41;;;;;;;1.85;1.25;;;19.50;30.90;;;;;;5150479;27;20177;-38
2022/05/28 10:05:16;;;;;;;2.47;1.10;;;19.60;30.70;;;;;;5150284;27;20241;-38
2022/05/28 10:07:45;;;;;;;3.92;0.98;;;19.60;30.20;;;;;;5150359;27;20649;-38
2022/05/28 10:10:21;;;;;;;3.35;1.00;;;19.50;30.70;;;;;;5150294;27;20185;-39
2022/05/28 10:12:47;;;;;;;2.97;0.80;;;19.50;29.80;;;;;;5131829;27;20215;-38
2022/05/28 10:15:17;;;;;;;5.40;1.17;;;19.50;30.30;;;;;;5149977;27;20257;-38
2022/05/28 10:18:13;;;;;;;3.92;0.85;;;19.50;30.00;;;;;;5150137;27;20656;-38
2022/05/28 10:20:39;;;;;;;2.28;1.33;;;19.50;30.80;;;;;;5127751;27;20186;-40
2022/05/28 10:23:14;;;;;;;1.63;0.80;;;19.50;29.60;;;;;;5150073;27;20534;-41
2022/05/28 10:25:49;;;;;;;2.45;2.05;;;19.40;29.80;;;;;;5149974;27;20590;-41
2022/05/28 10:28:43;;;;;;;3.08;1.67;;;19.40;30.70;;;;;;5149913;27;20241;-40
2022/05/28 10:31:31;;;;;;;2.75;0.80;;;19.40;29.40;;;;;;5150041;27;20162;-40
2022/05/28 10:33:58;;;;;;;2.00;1.23;;;19.40;29.80;;;;;;5149697;27;20202;-41
2022/05/28 10:36:28;;;;;;;5.50;0.95;;;19.40;28.20;;;;;;5141259;27;20277;-40
2022/05/28 10:39:12;;;;;;;1.50;0.75;;;19.50;29.40;;;;;;5136192;27;20165;-40
2022/05/28 10:41:39;;;;;;;2.20;0.95;;;19.70;28.30;;;;;;5136092;27;20158;-41
2022/05/28 10:44:06;;;;;;;2.13;1.10;;;19.70;27.30;;;;;;5135615;27;20284;-41
2022/05/28 10:47:07;;;;;;;3.95;1.40;;;19.70;28.30;;;;;;5117403;27;20187;-40
2022/05/28 10:49:44;;;;;;;3.13;1.20;;;19.90;29.20;;;;;;5135885;27;20167;-41
2022/05/28 10:52:10;;;;;;;2.03;0.82;;;20.30;28.50;;;;;;5135671;27;20181;-41
2022/05/28 10:55:03;;;;;;;2.10;1.20;;;20.60;28.60;;;;;;5135645;27;20163;-41
2022/05/28 10:57:49;;;;;;;4.57;1.80;;;20.90;28.80;;;;;;5135538;27;20190;-40
2022/05/28 11:00:19;;;;;;;2.00;1.42;;;21.00;28.70;;;;;;5135902;27;20159;-41
2022/05/28 11:03:22;;;;;;;4.13;1.60;;;21.00;28.40;;;;;;5135603;27;20170;-41
2022/05/28 11:06:02;;;;;;;5.38;1.25;;;21.10;26.80;;;;;;5135363;27;20202;-41
2022/05/28 11:09:06;;;;;;;1.70;0.98;;;21.10;28.00;;;;;;5135636;27;20190;-41
2022/05/28 11:11:53;;;;;;;1.95;1.35;;;21.10;26.70;;;;;;5135285;27;20701;-40
2022/05/28 11:14:45;;;;;;;2.30;1.20;;;21.00;25.90;;;;;;5135389;27;20171;-41
2022/05/28 11:17:48;;;;;;;2.03;0.85;;;20.80;26.80;;;;;;5134807;27;20270;-41
2022/05/28 11:20:30;;;;;;;2.28;1.38;;;20.80;25.90;;;;;;5135334;27;20209;-41
2022/05/28 11:23:03;;;;;;;1.50;0.80;;;20.90;26.60;;;;;;5135199;27;20158;-41
2022/05/28 11:25:58;;;;;;;2.00;0.90;;;21.00;26.10;;;;;;5134687;27;20256;-41
2022/05/28 11:28:57;;;;;;;3.25;1.05;;;20.90;24.60;;;;;;5134732;27;20166;-41
2022/05/28 11:31:31;;;;;;;2.00;0.98;;;20.60;25.90;;;;;;5134975;27;20183;-41
2022/05/28 11:34:05;;;;;;;3.50;1.08;;;20.50;26.00;;;;;;5134976;27;20184;-40
2022/05/28 11:36:38;;;;;;;3.97;1.65;;;20.60;27.70;;;;;;5134655;27;20670;-41
2022/05/28 11:39:09;;;;;;;2.58;0.65;;;20.70;25.50;;;;;;5134822;27;20242;-41
2022/05/28 11:41:49;;;;;;;2.78;1.38;;;20.90;24.70;;;;;;5134834;27;20234;-41
2022/05/28 11:44:41;;;;;;;2.13;1.00;;;21.10;26.70;;;;;;5134535;27;20197;-41
2022/05/28 11:47:23;;;;;;;3.60;0.90;;;21.40;27.40;;;;;;5133935;27;20187;-40
2022/05/28 11:52:54;;;;;;;3.70;1.60;;;21.40;24.60;;;;;;5134580;27;20177;-39
2022/05/28 11:55:25;;;;;;;2.17;1.20;;;21.20;25.10;;;;;;5134475;27;20220;-38
2022/05/28 11:58:06;;;;;;;6.00;1.20;;;21.20;26.90;;;;;;5134289;27;20175;-38
2022/05/28 12:00:39;;;;;;;2.65;1.30;;;21.40;27.20;;;;;;5134478;27;20396;-39
2022/05/28 12:03:20;;;;;;;1.60;0.87;;;21.60;27.10;;;;;;5134332;27;20190;-38
2022/05/28 12:05:51;;;;;;;1.37;0.63;;;21.80;23.90;;;;;;5133836;27;21000;-38
2022/05/28 12:08:45;;;;;;;1.73;0.87;;;21.90;26.20;;;;;;5134151;27;20432;-39
2022/05/28 12:11:20;;;;;;;1.50;0.67;;;22.10;24.00;;;;;;5134193;27;20397;-37
2022/05/28 12:13:53;;;;;;;1.70;1.00;;;22.10;24.10;;;;;;5134133;27;20408;-38
2022/05/28 12:16:22;;;;;;;1.70;1.00;;;22.00;25.00;;;;;;5133773;27;20187;-39
2022/05/28 12:19:18;;;;;;;1.67;1.00;;;22.00;25.50;;;;;;5134003;27;20408;-38
2022/05/28 12:21:45;;;;;;;4.37;1.10;;;22.20;27.10;;;;;;5133582;27;20453;-39
2022/05/28 12:24:14;;;;;;;5.00;1.10;;;22.50;26.10;;;;;;5132183;27;20459;-39
2022/05/28 12:29:33;;;;;;;1.87;0.83;;;22.60;23.40;;;;;;5135538;27;20629;-38
2022/05/28 12:32:13;;;;;;;2.30;0.93;;;22.40;25.00;;;;;;5133356;27;20399;-39
2022/05/28 12:34:54;;;;;;;2.40;1.03;;;22.20;23.70;;;;;;5132301;27;20411;-40
2022/05/28 12:37:26;;;;;;;3.03;0.83;;;21.80;23.90;;;;;;5131934;27;20435;-39
2022/05/28 12:40:13;;;;;;;2.72;1.38;;;21.50;23.30;;;;;;5132712;27;20460;-39
2022/05/28 12:42:40;;;;;;;1.88;0.75;;;21.50;23.50;;;;;;5133521;27;20175;-39
2022/05/28 12:45:35;;;;;;;7.03;1.17;;;21.40;23.30;;;;;;5133033;27;20194;-39
2022/05/28 12:48:23;;;;;;;2.23;0.80;;;21.30;24.70;;;;;;5134289;27;20418;-39
2022/05/28 12:51:13;;;;;;;1.47;0.80;;;21.30;25.60;;;;;;5133508;27;20404;-39
2022/05/28 12:53:58;;;;;;;3.50;1.50;;;21.40;26.00;;;;;;5114840;27;20757;-39
2022/05/28 12:56:35;;;;;;;1.47;0.80;;;21.70;26.10;;;;;;5133207;27;20419;-39
2022/05/28 12:59:23;;;;;;;8.02;1.42;;;22.00;25.50;;;;;;5132936;27;20782;-39
2022/05/28 13:01:57;;;;;;;4.70;0.87;;;22.40;26.40;;;;;;5133182;27;20583;-39
2022/05/28 13:04:28;;;;;;;3.20;0.90;;;22.70;26.30;;;;;;5133191;27;20483;-39
2022/05/28 13:06:58;;;;;;;3.30;0.93;;;22.90;23.80;;;;;;5133140;27;20442;-39
2022/05/28 13:09:27;;;;;;;1.77;0.70;;;22.80;22.00;;;;;;5133394;27;20487;-39
2022/05/28 13:12:03;;;;;;;2.80;1.00;;;22.60;23.00;;;;;;5133132;27;20396;-39
2022/05/28 13:14:31;;;;;;;2.07;0.80;;;22.40;22.20;;;;;;5133093;27;20906;-39
2022/05/28 13:17:34;;;;;;;2.53;1.10;;;22.20;23.70;;;;;;5133087;27;20432;-39
2022/05/28 13:20:18;;;;;;;3.50;1.40;;;22.10;23.70;;;;;;5048072;28;20435;-42